Hanjin Valencia — 3FSR7 — position and weather

sailwx.info

Track history (hours):
 
Tides and Currents Weather Stations Pressure Air Temp Water Temp Dewpoint Dewpoint Depression Visibility Wind Speed Wind Dir Waves Ship Positions

Hanjin Valencia

Last reported at 2018-Feb-24 18:16 UTC. Time now 2018-Feb-24 20:14 UTC.
Position S 01°32' W 048°45'.

Length 183 m; draft 12.4 m.

Type: Tanker. MMSI: 374057000.

Date/timePositionNaut miles runAvg speedWind from/ knotsBaromVisibWave heightAir tempDewpointWater temp
2018-Feb-24 18:16S 01°32' W 048°45'0 0.0
2018-Feb-24 17:46S 01°32' W 048°45'0 0.0
2018-Feb-24 17:01S 01°32' W 048°45'0 0.0
2018-Feb-24 17:00S 01°32' W 048°45'0 0.0
2018-Feb-24 13:28S 01°32' W 048°45'0 0.0
2018-Feb-24 12:28S 01°32' W 048°45'0 0.0
2018-Feb-24 11:46S 01°32' W 048°45'0 0.0
2018-Feb-24 11:27S 01°32' W 048°45'0 0.0
2018-Feb-24 10:52S 01°32' W 048°45'0 0.0
2018-Feb-24 10:27S 01°32' W 048°45'0 0.0
2018-Feb-24 09:57S 01°32' W 048°45'0 0.0
2018-Feb-24 09:23S 01°32' W 048°45'0 0.0
2018-Feb-24 08:57S 01°32' W 048°45'0 0.0
2018-Feb-24 08:21S 01°32' W 048°45'0 0.0
2018-Feb-24 07:57S 01°32' W 048°45'0 0.0
2018-Feb-24 07:27S 01°32' W 048°45'0 0.0
2018-Feb-24 06:57S 01°32' W 048°45'0 0.0
2018-Feb-24 06:30S 01°32' W 048°45'0 0.0
2018-Feb-24 05:58S 01°32' W 048°45'0 0.0
2018-Feb-24 04:40S 01°32' W 048°45'0 0.0
2018-Feb-23 20:28S 01°32' W 048°45'0 0.0
2018-Feb-23 19:39S 01°32' W 048°45'0 0.0
2018-Feb-23 19:21S 01°32' W 048°45'0 0.0
2018-Feb-23 18:57S 01°32' W 048°45'0 0.0
2018-Feb-23 18:27S 01°32' W 048°45'0 0.0
2018-Feb-23 17:40S 01°32' W 048°45'0 0.0
2018-Feb-23 17:27S 01°32' W 048°45'0 0.0
2018-Feb-23 17:00S 01°32' W 048°45'1 1.4
2018-Feb-23 16:30S 01°32' W 048°45'1 2.1
2018-Feb-23 15:56S 01°31' W 048°47'0 0.1
2018-Feb-23 15:20S 01°31' W 048°47'0 0.0
2018-Feb-23 14:56S 01°31' W 048°47'0 0.0
2018-Feb-23 14:20S 01°31' W 048°47'0 0.0
2018-Feb-23 13:44S 01°31' W 048°47'0 0.1
2018-Feb-23 13:20S 01°31' W 048°47'0 0.1
2018-Feb-23 12:50S 01°31' W 048°47'0 0.0
2018-Feb-23 12:26S 01°31' W 048°47'0 0.0
2018-Feb-23 11:56S 01°31' W 048°47'0 0.0
2018-Feb-23 11:26S 01°31' W 048°47'0 0.0
2018-Feb-23 10:56S 01°31' W 048°47'0 0.2
2018-Feb-23 10:29S 01°31' W 048°47'0 0.2
2018-Feb-23 09:56S 01°31' W 048°47'0 0.0
2018-Feb-23 09:26S 01°31' W 048°47'0 0.1
2018-Feb-23 09:00S 01°31' W 048°47'1 2.0
2018-Feb-23 08:30S 01°31' W 048°46'4 8.2
2018-Feb-23 07:58S 01°27' W 048°44'612.6
2018-Feb-23 07:29S 01°22' W 048°41'612.9
2018-Feb-23 07:00S 01°17' W 048°37'713.2
2018-Feb-23 06:30S 01°11' W 048°33'5 9.8
2018-Feb-23 06:00S 01°08' W 048°30'510.8
2018-Feb-23 05:30S 01°02' W 048°28'612.4
2018-Feb-23 05:01S 00°56' W 048°26'612.0
2018-Feb-23 04:29S 00°51' W 048°29'713.6
2018-Feb-23 04:00S 00°45' W 048°26'713.3
2018-Feb-23 03:29S 00°39' W 048°23'713.5
2018-Feb-23 02:57S 00°33' W 048°19'712.8
2018-Feb-23 02:23S 00°27' W 048°14'812.0
2018-Feb-23 01:41S 00°22' W 048°08'412.2
2018-Feb-23 01:21S 00°21' W 048°04'411.1
2018-Feb-23 01:00S 00°19' W 048°00'510.0
2018-Feb-23 00:30S 00°17' W 047°56'4 8.0
2018-Feb-23 00:00S 00°15' W 047°52'4 8.1
2018-Feb-22 23:29S 00°12' W 047°49'4 8.8
2018-Feb-22 23:00S 00°09' W 047°46'4 8.2
2018-Feb-22 22:30S 00°07' W 047°43'4 6.1
2018-Feb-22 21:56S 00°04' W 047°40'4 8.8
2018-Feb-22 21:30S 00°02' W 047°37'5 9.5
2018-Feb-22 21:00N 00°02' W 047°34'5 9.3
2018-Feb-22 20:29N 00°05' W 047°31'  
Track history (hours):
 
Tides and Currents Weather Stations Pressure Air Temp Water Temp Dewpoint Dewpoint Depression Visibility Wind Speed Wind Dir Waves Ship Positions

Hanjin Valencia

Last reported at 2018-Feb-24 18:16 UTC. Time now 2018-Feb-24 20:14 UTC.
Position S 01°32' W 048°45'.

Length 183 m; draft 12.4 m.

Type: Tanker. MMSI: 374057000.

Date/timePositionNaut miles runAvg speedWind from/ knotsBaromVisibWave heightAir tempDewpointWater temp
2018-Feb-24 18:16S 01°32' W 048°45'0 0.0
2018-Feb-24 17:46S 01°32' W 048°45'0 0.0
2018-Feb-24 17:01S 01°32' W 048°45'0 0.0
2018-Feb-24 17:00S 01°32' W 048°45'0 0.0
2018-Feb-24 13:28S 01°32' W 048°45'0 0.0
2018-Feb-24 12:28S 01°32' W 048°45'0 0.0
2018-Feb-24 11:46S 01°32' W 048°45'0 0.0
2018-Feb-24 11:27S 01°32' W 048°45'0 0.0
2018-Feb-24 10:52S 01°32' W 048°45'0 0.0
2018-Feb-24 10:27S 01°32' W 048°45'0 0.0
2018-Feb-24 09:57S 01°32' W 048°45'0 0.0
2018-Feb-24 09:23S 01°32' W 048°45'0 0.0
2018-Feb-24 08:57S 01°32' W 048°45'0 0.0
2018-Feb-24 08:21S 01°32' W 048°45'0 0.0
2018-Feb-24 07:57S 01°32' W 048°45'0 0.0
2018-Feb-24 07:27S 01°32' W 048°45'0 0.0
2018-Feb-24 06:57S 01°32' W 048°45'0 0.0
2018-Feb-24 06:30S 01°32' W 048°45'0 0.0
2018-Feb-24 05:58S 01°32' W 048°45'0 0.0
2018-Feb-24 04:40S 01°32' W 048°45'0 0.0
2018-Feb-23 20:28S 01°32' W 048°45'0 0.0
2018-Feb-23 19:39S 01°32' W 048°45'0 0.0
2018-Feb-23 19:21S 01°32' W 048°45'0 0.0
2018-Feb-23 18:57S 01°32' W 048°45'0 0.0
2018-Feb-23 18:27S 01°32' W 048°45'0 0.0
2018-Feb-23 17:40S 01°32' W 048°45'0 0.0
2018-Feb-23 17:27S 01°32' W 048°45'0 0.0
2018-Feb-23 17:00S 01°32' W 048°45'1 1.4
2018-Feb-23 16:30S 01°32' W 048°45'1 2.1
2018-Feb-23 15:56S 01°31' W 048°47'0 0.1
2018-Feb-23 15:20S 01°31' W 048°47'0 0.0
2018-Feb-23 14:56S 01°31' W 048°47'0 0.0
2018-Feb-23 14:20S 01°31' W 048°47'0 0.0
2018-Feb-23 13:44S 01°31' W 048°47'0 0.1
2018-Feb-23 13:20S 01°31' W 048°47'0 0.1
2018-Feb-23 12:50S 01°31' W 048°47'0 0.0
2018-Feb-23 12:26S 01°31' W 048°47'0 0.0
2018-Feb-23 11:56S 01°31' W 048°47'0 0.0
2018-Feb-23 11:26S 01°31' W 048°47'0 0.0
2018-Feb-23 10:56S 01°31' W 048°47'0 0.2
2018-Feb-23 10:29S 01°31' W 048°47'0 0.2
2018-Feb-23 09:56S 01°31' W 048°47'0 0.0
2018-Feb-23 09:26S 01°31' W 048°47'0 0.1
2018-Feb-23 09:00S 01°31' W 048°47'1 2.0
2018-Feb-23 08:30S 01°31' W 048°46'4 8.2
2018-Feb-23 07:58S 01°27' W 048°44'612.6
2018-Feb-23 07:29S 01°22' W 048°41'612.9
2018-Feb-23 07:00S 01°17' W 048°37'713.2
2018-Feb-23 06:30S 01°11' W 048°33'5 9.8
2018-Feb-23 06:00S 01°08' W 048°30'510.8
2018-Feb-23 05:30S 01°02' W 048°28'612.4
2018-Feb-23 05:01S 00°56' W 048°26'612.0
2018-Feb-23 04:29S 00°51' W 048°29'713.6
2018-Feb-23 04:00S 00°45' W 048°26'713.3
2018-Feb-23 03:29S 00°39' W 048°23'713.5
2018-Feb-23 02:57S 00°33' W 048°19'712.8
2018-Feb-23 02:23S 00°27' W 048°14'812.0
2018-Feb-23 01:41S 00°22' W 048°08'412.2
2018-Feb-23 01:21S 00°21' W 048°04'411.1
2018-Feb-23 01:00S 00°19' W 048°00'510.0
2018-Feb-23 00:30S 00°17' W 047°56'4 8.0
2018-Feb-23 00:00S 00°15' W 047°52'4 8.1
2018-Feb-22 23:29S 00°12' W 047°49'4 8.8
2018-Feb-22 23:00S 00°09' W 047°46'4 8.2
2018-Feb-22 22:30S 00°07' W 047°43'4 6.1
2018-Feb-22 21:56S 00°04' W 047°40'4 8.8
2018-Feb-22 21:30S 00°02' W 047°37'5 9.5
2018-Feb-22 21:00N 00°02' W 047°34'5 9.3
2018-Feb-22 20:29N 00°05' W 047°31'  

Dump ship's entire track history